Time;durP1;ratioP1;P1;durP2;ratioP2;P2;SDS_P1;SDS_P2;PMS_P1;PMS_P2;Temp;Humidity;BMP_temperature;BMP_pressure;BME280_temperature;BME280_humidity;BME280_pressure;Samples;Min_cycle;Max_cycle;Signal;HPM_P1;HPM_P2
2023/08/09 00:04:46;;;;;;;1.80;1.70;;;19.60;32.50;;;;;;10267955;28;20232;-71
2023/08/09 00:09:49;;;;;;;2.43;1.90;;;19.70;32.50;;;;;;10261391;28;20323;-71
2023/08/09 00:14:54;;;;;;;1.83;1.70;;;19.70;32.30;;;;;;10260063;28;20235;-71
2023/08/09 00:19:57;;;;;;;2.37;1.80;;;19.70;32.30;;;;;;10267290;28;20236;-71
2023/08/09 00:25:00;;;;;;;1.90;1.70;;;19.70;32.10;;;;;;10262073;28;20657;-71
2023/08/09 00:30:07;;;;;;;1.93;1.80;;;19.70;32.00;;;;;;10264720;28;20224;-71
2023/08/09 00:35:10;;;;;;;1.97;1.87;;;19.70;32.30;;;;;;10267634;28;20739;-71
2023/08/09 00:40:13;;;;;;;2.60;2.00;;;19.70;32.10;;;;;;10259415;28;20607;-71
2023/08/09 00:45:18;;;;;;;1.80;1.70;;;19.60;32.40;;;;;;10263384;28;20237;-71
2023/08/09 00:50:21;;;;;;;2.87;1.70;;;19.40;32.60;;;;;;10262788;28;20240;-71
2023/08/09 00:55:24;;;;;;;2.13;1.80;;;19.50;32.70;;;;;;10259840;28;20338;-71
2023/08/09 01:00:29;;;;;;;1.90;1.70;;;19.40;32.70;;;;;;10255408;28;20240;-71
2023/08/09 01:05:38;;;;;;;1.63;1.50;;;19.50;33.30;;;;;;10266822;28;20240;-71
2023/08/09 01:10:49;;;;;;;2.53;1.70;;;19.40;33.50;;;;;;10263079;28;20259;-72
2023/08/09 01:15:54;;;;;;;2.27;1.90;;;19.40;34.10;;;;;;10262342;28;20224;-71
2023/08/09 01:20:58;;;;;;;1.93;1.80;;;19.50;34.30;;;;;;10279319;28;20319;-71
2023/08/09 01:26:05;;;;;;;2.33;1.87;;;19.50;34.00;;;;;;10267949;28;20224;-71
2023/08/09 01:31:08;;;;;;;1.70;1.60;;;19.50;34.90;;;;;;10262050;28;20244;-71
2023/08/09 01:36:19;;;;;;;1.60;1.50;;;19.60;34.20;;;;;;10266146;28;20235;-71
2023/08/09 01:41:24;;;;;;;1.90;1.80;;;19.50;36.10;;;;;;10266670;28;20243;-71
2023/08/09 01:46:27;;;;;;;2.03;1.83;;;19.60;35.30;;;;;;10265828;28;20746;-71
2023/08/09 01:51:31;;;;;;;1.97;1.87;;;19.60;35.00;;;;;;10263471;28;20240;-71
2023/08/09 01:56:36;;;;;;;2.00;1.90;;;19.60;35.10;;;;;;10260596;28;20244;-71
2023/08/09 02:01:39;;;;;;;1.87;1.77;;;19.50;36.10;;;;;;10269716;28;20262;-72
2023/08/09 02:06:42;;;;;;;2.20;2.00;;;19.40;35.30;;;;;;10271597;28;20306;-71
2023/08/09 02:11:47;;;;;;;2.10;1.90;;;19.30;35.70;;;;;;10271489;28;20836;-71
2023/08/09 02:16:50;;;;;;;3.77;2.17;;;19.20;35.80;;;;;;10276312;28;20227;-72
2023/08/09 02:21:53;;;;;;;2.20;2.00;;;19.00;35.60;;;;;;10267157;28;20254;-71
2023/08/09 02:26:58;;;;;;;2.60;2.00;;;18.90;35.50;;;;;;10261303;28;20263;-71
2023/08/09 02:32:02;;;;;;;2.27;2.17;;;18.70;36.30;;;;;;10261939;28;20828;-72
2023/08/09 02:37:05;;;;;;;2.20;2.10;;;18.70;35.90;;;;;;10274895;28;20835;-72
2023/08/09 02:42:09;;;;;;;1.97;1.80;;;18.60;36.10;;;;;;10264156;28;20236;-72
2023/08/09 02:47:13;;;;;;;2.00;1.90;;;18.50;36.80;;;;;;10274652;28;20322;-72
2023/08/09 02:52:16;;;;;;;3.03;2.30;;;18.50;36.40;;;;;;10262789;28;20273;-71
2023/08/09 02:57:20;;;;;;;2.10;1.90;;;18.60;37.40;;;;;;10265026;28;20319;-71
2023/08/09 03:02:23;;;;;;;1.83;1.73;;;18.60;37.10;;;;;;10269403;28;20256;-72
2023/08/09 03:07:27;;;;;;;2.33;1.80;;;18.70;36.60;;;;;;10265708;28;20240;-71
2023/08/09 03:12:32;;;;;;;2.10;1.80;;;18.70;36.70;;;;;;10269654;28;20240;-71
2023/08/09 03:17:35;;;;;;;1.80;1.70;;;18.80;37.50;;;;;;10262116;28;20242;-71
2023/08/09 03:22:38;;;;;;;2.00;1.90;;;18.80;36.80;;;;;;10269357;28;20936;-72
2023/08/09 03:27:43;;;;;;;2.40;2.07;;;18.90;36.90;;;;;;10276144;28;20231;-72
2023/08/09 03:32:46;;;;;;;1.97;1.87;;;19.00;37.60;;;;;;10259200;28;20235;-72
2023/08/09 03:37:50;;;;;;;2.10;1.90;;;19.00;36.90;;;;;;10268062;28;20330;-72
2023/08/09 03:42:55;;;;;;;3.57;1.87;;;18.90;37.20;;;;;;10265801;28;20716;-72
2023/08/09 03:47:58;;;;;;;2.03;1.67;;;18.90;37.60;;;;;;10266803;28;20236;-72
2023/08/09 03:53:01;;;;;;;2.90;1.70;;;18.70;37.20;;;;;;10264094;28;20232;-71
2023/08/09 03:58:06;;;;;;;1.83;1.70;;;18.50;37.40;;;;;;10271356;28;20639;-71
2023/08/09 04:03:09;;;;;;;3.70;1.90;;;18.50;38.50;;;;;;10267979;28;20728;-72
2023/08/09 04:08:12;;;;;;;1.93;1.80;;;18.50;38.00;;;;;;10267168;28;20723;-72
2023/08/09 04:13:17;;;;;;;2.30;2.20;;;18.50;38.10;;;;;;10265168;28;20242;-72
2023/08/09 04:18:20;;;;;;;1.93;1.80;;;18.40;38.90;;;;;;10272428;28;20239;-72
2023/08/09 04:23:24;;;;;;;2.30;2.13;;;18.30;38.30;;;;;;10261177;28;20242;-75
2023/08/09 04:28:29;;;;;;;2.20;2.00;;;18.20;38.60;;;;;;10267965;28;20702;-75
2023/08/09 04:33:32;;;;;;;2.10;2.00;;;18.10;39.40;;;;;;10264365;28;20236;-75
2023/08/09 04:38:35;;;;;;;1.80;1.70;;;18.00;38.90;;;;;;10267214;28;20295;-75
2023/08/09 04:43:43;;;;;;;2.23;2.10;;;18.00;39.10;;;;;;10275123;28;20318;-75
2023/08/09 04:48:46;;;;;;;2.10;2.00;;;18.00;40.80;;;;;;10268770;28;20663;-75
2023/08/09 04:53:50;;;;;;;2.20;2.00;;;18.10;39.50;;;;;;10261635;28;20697;-75
2023/08/09 04:58:54;;;;;;;1.90;1.80;;;18.10;39.50;;;;;;10269991;28;20239;-75
2023/08/09 05:03:57;;;;;;;2.07;1.87;;;18.00;40.30;;;;;;10267565;28;20255;-75
2023/08/09 05:09:00;;;;;;;2.10;1.87;;;18.00;39.90;;;;;;10267482;28;20247;-75
2023/08/09 05:14:06;;;;;;;2.10;1.90;;;17.90;40.00;;;;;;10274720;28;20228;-75
2023/08/09 05:19:10;;;;;;;2.27;2.07;;;17.90;40.90;;;;;;10263116;28;20267;-75
2023/08/09 05:24:13;;;;;;;2.80;2.20;;;17.80;40.60;;;;;;10260102;28;20725;-75
2023/08/09 05:29:18;;;;;;;1.93;1.83;;;17.80;40.80;;;;;;10269013;28;20242;-75
2023/08/09 05:34:22;;;;;;;2.37;2.17;;;17.80;41.50;;;;;;10268719;28;20246;-74
2023/08/09 05:39:25;;;;;;;2.50;2.20;;;17.80;41.10;;;;;;10272557;28;20231;-74
2023/08/09 05:44:30;;;;;;;2.60;2.37;;;17.70;41.10;;;;;;10261466;28;20228;-74
2023/08/09 05:49:34;;;;;;;2.30;2.10;;;17.70;42.20;;;;;;10268324;28;20235;-74
2023/08/09 05:54:37;;;;;;;3.23;2.50;;;17.70;42.30;;;;;;10272378;28;20274;-74
2023/08/09 05:59:42;;;;;;;2.67;2.37;;;17.70;41.70;;;;;;10272701;28;20251;-74
2023/08/09 06:04:45;;;;;;;2.53;2.33;;;17.60;43.40;;;;;;10266383;28;20593;-74
2023/08/09 06:09:48;;;;;;;2.37;2.10;;;17.60;42.00;;;;;;10263794;28;20270;-73
2023/08/09 06:14:53;;;;;;;2.47;2.27;;;17.60;42.30;;;;;;10262607;28;20319;-73
2023/08/09 06:19:56;;;;;;;2.73;2.00;;;17.60;43.30;;;;;;10269319;28;20240;-74
2023/08/09 06:24:59;;;;;;;2.07;1.87;;;17.60;42.40;;;;;;10274891;28;20314;-74
2023/08/09 06:30:06;;;;;;;3.53;2.20;;;17.60;42.50;;;;;;10262410;28;20248;-74
2023/08/09 06:35:12;;;;;;;3.27;1.80;;;17.60;43.50;;;;;;10268518;28;20259;-74
2023/08/09 06:40:16;;;;;;;1.70;1.60;;;17.70;42.60;;;;;;10276869;28;20239;-74
2023/08/09 06:45:21;;;;;;;2.10;2.00;;;17.70;42.70;;;;;;10277376;28;20319;-74
2023/08/09 06:50:24;;;;;;;1.97;1.87;;;17.70;43.50;;;;;;10284562;28;20241;-73
2023/08/09 06:55:27;;;;;;;3.23;2.30;;;17.80;43.20;;;;;;10264703;28;20902;-74
2023/08/09 07:00:32;;;;;;;2.40;2.20;;;17.80;43.20;;;;;;10274469;28;20671;-74
2023/08/09 07:05:35;;;;;;;2.23;2.03;;;17.90;44.10;;;;;;10283884;28;20242;-74
2023/08/09 07:10:38;;;;;;;2.40;2.20;;;17.90;43.30;;;;;;10286292;28;20239;-74
2023/08/09 07:15:43;;;;;;;2.77;2.00;;;17.90;43.30;;;;;;10277101;28;20236;-74
2023/08/09 07:20:46;;;;;;;2.10;2.00;;;18.00;43.90;;;;;;10261944;28;20227;-74
2023/08/09 07:25:49;;;;;;;2.13;1.70;;;18.00;43.40;;;;;;10258253;28;20224;-74
2023/08/09 07:30:55;;;;;;;2.50;1.90;;;18.00;43.40;;;;;;10281481;28;20238;-74
2023/08/09 07:35:58;;;;;;;2.10;1.90;;;18.10;44.20;;;;;;10275293;28;20635;-74
2023/08/09 07:41:01;;;;;;;2.00;1.80;;;18.10;43.60;;;;;;10272067;28;20275;-74
2023/08/09 07:46:06;;;;;;;2.03;1.93;;;18.20;43.60;;;;;;10275144;28;20280;-74
2023/08/09 07:51:11;;;;;;;1.70;1.60;;;18.20;44.30;;;;;;10278425;28;20240;-74
2023/08/09 07:56:15;;;;;;;1.77;1.60;;;18.30;43.60;;;;;;10260215;28;20239;-74
2023/08/09 08:01:20;;;;;;;1.70;1.60;;;18.40;43.40;;;;;;10255393;28;20596;-74
2023/08/09 08:06:23;;;;;;;2.30;1.70;;;18.50;44.10;;;;;;10284301;28;20698;-74
2023/08/09 08:11:26;;;;;;;1.90;1.60;;;18.50;43.50;;;;;;10259011;28;20227;-74
2023/08/09 08:16:31;;;;;;;2.00;1.80;;;18.60;43.50;;;;;;10276960;28;20315;-74
2023/08/09 08:21:34;;;;;;;1.90;1.73;;;18.70;43.90;;;;;;10276438;28;20286;-74
2023/08/09 08:26:39;;;;;;;2.70;1.90;;;18.70;43.40;;;;;;10275066;28;20739;-74
2023/08/09 08:31:44;;;;;;;1.83;1.73;;;18.80;43.30;;;;;;10276381;28;20241;-73
2023/08/09 08:36:47;;;;;;;1.63;1.53;;;18.80;43.70;;;;;;10277429;28;20961;-73
2023/08/09 08:41:51;;;;;;;1.83;1.27;;;18.90;43.40;;;;;;10275083;28;20278;-73
2023/08/09 08:46:56;;;;;;;1.50;1.40;;;19.00;43.50;;;;;;10275050;28;20314;-73
2023/08/09 08:52:01;;;;;;;3.67;1.70;;;19.00;43.80;;;;;;10271190;28;20870;-73
2023/08/09 08:57:07;;;;;;;1.80;1.70;;;19.10;43.70;;;;;;10268861;28;20834;-74
2023/08/09 09:02:13;;;;;;;2.47;1.90;;;19.10;44.20;;;;;;10261258;28;20578;-74
2023/08/09 09:07:16;;;;;;;2.37;1.67;;;19.20;43.80;;;;;;10266094;28;20923;-74
2023/08/09 09:12:21;;;;;;;1.90;1.67;;;19.30;43.80;;;;;;10272493;28;20264;-74
2023/08/09 09:17:27;;;;;;;2.50;1.53;;;19.40;43.70;;;;;;10267743;28;20255;-74
2023/08/09 09:22:34;;;;;;;4.97;1.60;;;19.40;43.80;;;;;;10265473;28;20235;-74
2023/08/09 09:27:40;;;;;;;2.23;1.80;;;19.50;43.20;;;;;;10267336;28;20262;-74
2023/08/09 09:32:56;;;;;;;1.80;1.70;;;19.60;43.20;;;;;;10262051;28;20318;-74
2023/08/09 09:38:01;;;;;;;1.80;1.63;;;19.60;44.10;;;;;;10261366;28;20239;-74
2023/08/09 09:43:06;;;;;;;2.30;1.70;;;19.60;43.40;;;;;;10266233;28;20252;-74
2023/08/09 09:48:17;;;;;;;2.33;1.90;;;19.60;43.20;;;;;;10257206;28;20739;-74
2023/08/09 09:53:21;;;;;;;1.83;1.70;;;19.60;44.20;;;;;;10266062;28;20239;-74
2023/08/09 09:58:24;;;;;;;1.87;1.70;;;19.60;43.40;;;;;;10267203;28;20798;-74
2023/08/09 10:03:33;;;;;;;1.93;1.83;;;19.60;43.50;;;;;;10273142;28;20326;-74
2023/08/09 10:08:56;;;;;;;2.20;1.90;;;19.60;45.10;;;;;;10258870;28;20224;-74
2023/08/09 10:14:03;;;;;;;2.13;1.87;;;19.70;44.50;;;;;;10268867;28;20239;-74
2023/08/09 10:19:14;;;;;;;1.90;1.80;;;19.70;45.00;;;;;;10279115;28;20262;-74
2023/08/09 10:24:18;;;;;;;2.03;1.80;;;19.90;45.40;;;;;;10267146;28;20235;-74
2023/08/09 10:29:24;;;;;;;2.10;1.90;;;20.10;44.70;;;;;;10277536;28;20255;-74
2023/08/09 10:34:40;;;;;;;2.27;2.07;;;20.20;44.50;;;;;;10286581;28;20291;-74
2023/08/09 10:39:48;;;;;;;2.03;1.90;;;20.30;45.60;;;;;;10274468;28;21190;-74
2023/08/09 10:44:52;;;;;;;2.30;2.10;;;20.50;44.40;;;;;;10277577;28;20270;-73
2023/08/09 10:50:03;;;;;;;3.20;2.13;;;20.60;43.60;;;;;;10283744;28;20228;-73
2023/08/09 10:55:37;;;;;;;2.10;1.90;;;20.70;44.30;;;;;;10275403;28;20235;-73
2023/08/09 11:00:41;;;;;;;2.33;2.10;;;20.70;44.90;;;;;;10276271;28;20326;-73
2023/08/09 11:05:46;;;;;;;2.40;2.10;;;20.80;45.00;;;;;;10277173;28;20244;-73
2023/08/09 11:10:49;;;;;;;3.07;2.07;;;20.90;45.20;;;;;;10284033;28;20259;-74
2023/08/09 11:15:53;;;;;;;2.47;2.20;;;21.10;45.10;;;;;;10281464;28;20242;-74
2023/08/09 11:20:57;;;;;;;2.30;2.10;;;21.30;44.30;;;;;;10275281;28;20271;-74
2023/08/09 11:26:01;;;;;;;2.23;2.13;;;21.40;43.90;;;;;;10266506;28;20238;-74
2023/08/09 11:31:06;;;;;;;2.80;2.40;;;21.40;43.90;;;;;;10284476;28;20689;-74
2023/08/09 11:36:10;;;;;;;2.37;1.97;;;21.50;44.00;;;;;;10277869;28;20341;-73
2023/08/09 11:41:16;;;;;;;2.30;2.10;;;21.50;44.00;;;;;;10276138;28;20236;-73
2023/08/09 11:46:23;;;;;;;2.47;2.27;;;21.50;43.80;;;;;;10273700;28;20251;-73
2023/08/09 11:51:31;;;;;;;3.20;2.00;;;21.60;43.00;;;;;;10262110;28;20303;-73
2023/08/09 11:56:36;;;;;;;2.30;2.10;;;21.80;43.20;;;;;;10257102;28;20235;-72
2023/08/09 12:01:41;;;;;;;3.23;1.97;;;21.90;43.70;;;;;;10262332;28;20264;-72
2023/08/09 12:06:50;;;;;;;2.00;1.80;;;22.00;42.60;;;;;;10263225;28;20231;-72
2023/08/09 12:11:54;;;;;;;2.30;1.70;;;22.10;42.70;;;;;;10259157;28;20251;-72
2023/08/09 12:16:57;;;;;;;4.33;2.27;;;22.30;42.70;;;;;;10260378;28;20261;-72
2023/08/09 12:22:03;;;;;;;2.40;2.00;;;22.40;42.30;;;;;;10260299;28;20791;-72
2023/08/09 12:27:07;;;;;;;2.33;2.00;;;22.50;42.70;;;;;;10258958;28;20239;-72
2023/08/09 12:32:10;;;;;;;2.50;2.30;;;22.60;42.30;;;;;;10259408;28;20250;-71
2023/08/09 12:37:15;;;;;;;2.33;2.00;;;22.70;41.50;;;;;;10259107;28;20318;-72
2023/08/09 12:42:18;;;;;;;4.90;2.30;;;22.70;41.20;;;;;;10256249;28;20323;-72
2023/08/09 12:47:21;;;;;;;2.67;2.47;;;22.70;41.30;;;;;;10257103;28;20243;-72
2023/08/09 12:52:26;;;;;;;2.67;2.47;;;22.60;41.50;;;;;;10261716;28;20685;-72
2023/08/09 12:57:29;;;;;;;2.60;2.40;;;22.50;42.10;;;;;;10249510;28;20244;-72
2023/08/09 13:02:32;;;;;;;2.63;2.43;;;22.50;43.00;;;;;;10261888;28;20967;-72
2023/08/09 13:07:37;;;;;;;2.60;2.40;;;22.50;43.00;;;;;;10258983;28;20232;-72
2023/08/09 13:12:40;;;;;;;3.03;2.13;;;22.50;42.20;;;;;;10258750;28;20235;-72
2023/08/09 13:17:45;;;;;;;1.80;1.70;;;22.50;42.10;;;;;;10260265;28;20663;-72
2023/08/09 13:22:49;;;;;;;1.53;1.43;;;22.30;42.20;;;;;;10256503;28;20255;-72
2023/08/09 13:27:52;;;;;;;1.80;1.70;;;22.10;41.70;;;;;;10254712;28;20338;-72
2023/08/09 13:32:56;;;;;;;1.80;1.70;;;22.00;41.90;;;;;;10256606;28;20315;-72
2023/08/09 13:38:04;;;;;;;1.70;1.60;;;21.70;41.90;;;;;;10259124;28;20244;-72
2023/08/09 13:43:07;;;;;;;1.93;1.60;;;21.60;42.80;;;;;;10251987;28;20322;-72
2023/08/09 13:48:10;;;;;;;1.97;1.60;;;21.40;42.20;;;;;;10256262;28;20605;-72
2023/08/09 13:53:15;;;;;;;1.70;1.60;;;21.30;43.10;;;;;;10260331;28;20320;-72
2023/08/09 13:58:19;;;;;;;1.97;1.70;;;21.30;43.00;;;;;;10257657;28;20878;-72
2023/08/09 14:03:22;;;;;;;1.73;1.63;;;21.20;42.90;;;;;;10269199;28;20323;-72
2023/08/09 14:08:26;;;;;;;2.23;1.70;;;21.10;43.20;;;;;;10266537;28;20312;-72
2023/08/09 14:13:30;;;;;;;2.80;1.70;;;21.10;43.20;;;;;;10265626;28;20910;-72
2023/08/09 14:18:33;;;;;;;2.50;1.80;;;21.00;43.20;;;;;;10264075;28;20704;-73
2023/08/09 14:23:38;;;;;;;2.37;2.17;;;21.00;43.30;;;;;;10266211;28;20238;-72
2023/08/09 14:28:43;;;;;;;3.07;1.80;;;20.90;43.50;;;;;;10260428;28;20326;-72
2023/08/09 14:33:48;;;;;;;1.73;1.57;;;21.00;43.40;;;;;;10261192;28;20236;-72
2023/08/09 14:38:53;;;;;;;3.20;1.80;;;21.00;43.20;;;;;;10262291;28;20458;-72
2023/08/09 14:43:56;;;;;;;1.47;1.37;;;21.00;43.20;;;;;;10265571;28;20235;-72
2023/08/09 14:48:59;;;;;;;1.83;1.60;;;21.10;43.00;;;;;;10259798;28;20236;-72
2023/08/09 14:54:07;;;;;;;1.60;1.50;;;21.10;43.00;;;;;;10262184;28;20220;-72
2023/08/09 14:59:10;;;;;;;2.23;1.83;;;21.10;43.20;;;;;;10260834;28;20252;-72
2023/08/09 15:04:18;;;;;;;1.50;1.33;;;21.10;43.20;;;;;;10260509;28;20323;-72
2023/08/09 15:09:24;;;;;;;2.10;1.50;;;21.00;43.30;;;;;;10257840;28;20233;-72
2023/08/09 15:14:27;;;;;;;1.70;1.50;;;21.00;43.60;;;;;;10263449;28;20296;-72
2023/08/09 15:19:30;;;;;;;2.07;1.60;;;21.10;43.60;;;;;;10261083;28;20228;-72
2023/08/09 15:24:35;;;;;;;1.50;1.40;;;21.10;43.40;;;;;;10250370;28;20323;-71
2023/08/09 15:29:38;;;;;;;1.70;1.60;;;21.10;43.70;;;;;;10259461;28;20238;-71
2023/08/09 15:34:41;;;;;;;1.67;1.57;;;21.10;43.40;;;;;;10257006;28;20706;-71
2023/08/09 15:39:46;;;;;;;1.63;1.53;;;21.10;43.20;;;;;;10264788;28;20243;-71
2023/08/09 15:44:49;;;;;;;1.50;1.30;;;21.10;43.70;;;;;;10261362;28;20227;-71
2023/08/09 15:49:52;;;;;;;1.80;1.70;;;21.20;43.40;;;;;;10257703;28;20696;-71
2023/08/09 15:54:56;;;;;;;1.53;1.43;;;21.20;43.30;;;;;;10254250;28;20240;-71
2023/08/09 15:59:59;;;;;;;1.60;1.50;;;21.20;43.50;;;;;;10252168;28;20759;-72
2023/08/09 16:05:03;;;;;;;1.50;1.40;;;21.20;43.40;;;;;;10259426;28;20315;-71
2023/08/09 16:10:09;;;;;;;1.50;1.40;;;21.30;43.50;;;;;;10261513;28;20243;-71
2023/08/09 16:15:12;;;;;;;1.80;1.70;;;21.30;43.90;;;;;;10256155;28;20771;-71
2023/08/09 16:20:16;;;;;;;2.00;1.90;;;21.30;43.40;;;;;;10255716;28;20239;-72
2023/08/09 16:25:21;;;;;;;1.80;1.70;;;21.30;43.30;;;;;;10258432;28;20239;-72
2023/08/09 16:30:24;;;;;;;1.70;1.60;;;21.40;43.60;;;;;;10259392;28;20354;-72
2023/08/09 16:35:29;;;;;;;1.90;1.80;;;21.40;43.40;;;;;;10262363;28;20232;-72
2023/08/09 16:40:35;;;;;;;1.80;1.70;;;21.40;43.50;;;;;;10260900;28;20244;-72
2023/08/09 16:45:38;;;;;;;1.80;1.70;;;21.40;43.70;;;;;;10252562;28;20237;-72
2023/08/09 16:50:41;;;;;;;1.70;1.60;;;21.50;43.60;;;;;;10262107;28;20617;-72
2023/08/09 16:55:46;;;;;;;2.20;2.00;;;21.50;43.30;;;;;;10256749;28;20240;-72
2023/08/09 17:00:49;;;;;;;1.77;1.67;;;21.60;43.50;;;;;;10258198;28;20244;-72
2023/08/09 17:05:52;;;;;;;1.50;1.40;;;21.60;43.30;;;;;;10260717;28;20231;-72
2023/08/09 17:10:57;;;;;;;1.70;1.60;;;21.60;43.30;;;;;;10253210;28;20236;-72
2023/08/09 17:16:00;;;;;;;1.70;1.60;;;21.70;43.70;;;;;;10257297;28;20242;-72
2023/08/09 17:21:05;;;;;;;1.53;1.43;;;21.70;43.40;;;;;;10253594;28;20243;-72
2023/08/09 17:26:11;;;;;;;1.70;1.60;;;21.70;43.30;;;;;;10257123;28;20262;-72
2023/08/09 17:31:14;;;;;;;1.60;1.50;;;21.70;43.30;;;;;;10257328;28;20342;-72
2023/08/09 17:36:17;;;;;;;1.87;1.77;;;21.70;43.30;;;;;;10256416;28;20460;-72
2023/08/09 17:41:22;;;;;;;2.30;1.60;;;21.70;43.30;;;;;;10255530;28;20240;-72
2023/08/09 17:46:25;;;;;;;1.87;1.77;;;21.70;43.30;;;;;;10257078;28;20610;-71
2023/08/09 17:51:28;;;;;;;2.77;1.70;;;21.70;43.40;;;;;;10258702;28;20306;-72
2023/08/09 17:56:33;;;;;;;1.90;1.80;;;21.70;43.50;;;;;;10251488;28;20237;-72
2023/08/09 18:01:36;;;;;;;1.80;1.70;;;21.70;43.80;;;;;;10255903;28;20330;-72
2023/08/09 18:06:39;;;;;;;1.97;1.80;;;21.70;44.50;;;;;;10257506;28;20338;-72
2023/08/09 18:11:44;;;;;;;2.37;1.67;;;21.70;43.90;;;;;;10256181;28;20243;-72
2023/08/09 18:16:48;;;;;;;2.30;2.10;;;21.70;44.30;;;;;;10253835;28;20324;-72
2023/08/09 18:21:51;;;;;;;2.60;2.40;;;21.70;44.10;;;;;;10250295;28;20240;-72
2023/08/09 18:26:56;;;;;;;2.60;2.40;;;21.70;44.00;;;;;;10253966;28;20230;-72
2023/08/09 18:31:59;;;;;;;2.17;2.07;;;21.60;44.40;;;;;;10257532;28;20237;-72
2023/08/09 18:37:02;;;;;;;2.10;2.00;;;21.50;44.20;;;;;;10262482;28;20232;-72
2023/08/09 18:42:07;;;;;;;3.03;2.00;;;21.50;44.10;;;;;;10258122;28;20240;-72
2023/08/09 18:47:11;;;;;;;2.50;2.30;;;21.50;44.50;;;;;;10256431;28;20598;-72
2023/08/09 18:52:14;;;;;;;2.00;1.90;;;21.40;44.00;;;;;;10264988;28;20303;-72
2023/08/09 18:57:19;;;;;;;2.60;2.40;;;21.30;44.00;;;;;;10267549;28;20232;-72
2023/08/09 19:02:22;;;;;;;2.30;2.20;;;21.30;44.50;;;;;;10263169;28;20254;-72
2023/08/09 19:07:25;;;;;;;2.57;1.77;;;21.20;44.20;;;;;;10264330;28;20295;-72
2023/08/09 19:12:30;;;;;;;2.57;2.43;;;21.10;44.20;;;;;;10257869;28;20343;-72
2023/08/09 19:17:34;;;;;;;2.83;2.60;;;21.10;44.60;;;;;;10266846;28;20240;-72
2023/08/09 19:22:37;;;;;;;4.20;2.57;;;21.10;44.80;;;;;;10258344;28;20231;-72
2023/08/09 19:27:42;;;;;;;3.10;2.43;;;21.10;44.50;;;;;;10261547;28;20228;-72
2023/08/09 19:32:45;;;;;;;2.20;2.10;;;21.00;44.70;;;;;;10265156;28;20238;-72
2023/08/09 19:37:48;;;;;;;2.60;2.40;;;20.90;44.40;;;;;;10265432;28;20238;-72
2023/08/09 19:42:53;;;;;;;2.57;2.37;;;20.90;44.60;;;;;;10264864;28;20623;-72
2023/08/09 19:47:58;;;;;;;2.73;2.53;;;20.90;45.00;;;;;;10263095;28;20239;-72
2023/08/09 19:53:02;;;;;;;2.90;2.70;;;20.80;44.70;;;;;;10263849;28;20290;-72
2023/08/09 19:58:06;;;;;;;5.30;2.73;;;20.70;44.90;;;;;;10256174;28;20251;-72
2023/08/09 20:03:10;;;;;;;2.70;2.50;;;20.60;45.30;;;;;;10263969;28;20596;-72
2023/08/09 20:08:13;;;;;;;3.73;3.20;;;20.50;45.20;;;;;;10262316;28;20327;-72
2023/08/09 20:13:21;;;;;;;4.60;4.20;;;20.50;45.40;;;;;;10260702;28;20260;-72
2023/08/09 20:18:25;;;;;;;2.97;2.77;;;20.50;46.00;;;;;;10253206;28;20235;-72
2023/08/09 20:23:28;;;;;;;2.70;2.50;;;20.40;45.50;;;;;;10259066;28;20319;-72
2023/08/09 20:28:32;;;;;;;2.57;2.20;;;20.40;45.50;;;;;;10266559;28;20266;-72
2023/08/09 20:33:35;;;;;;;2.27;2.07;;;20.40;45.60;;;;;;10268303;28;20236;-72
2023/08/09 20:38:39;;;;;;;1.70;1.60;;;20.30;44.40;;;;;;10268297;28;20267;-72
2023/08/09 20:43:43;;;;;;;1.73;1.40;;;20.20;43.30;;;;;;10272195;28;20327;-72
2023/08/09 20:48:46;;;;;;;1.83;1.73;;;20.20;43.00;;;;;;10256606;28;20698;-72
2023/08/09 20:53:50;;;;;;;1.40;1.30;;;20.00;43.30;;;;;;10263369;28;20344;-72
2023/08/09 20:58:54;;;;;;;1.70;1.60;;;19.80;42.90;;;;;;10258407;28;20243;-72
2023/08/09 21:03:59;;;;;;;1.60;1.50;;;19.70;42.70;;;;;;10264745;28;20730;-72
2023/08/09 21:09:02;;;;;;;1.60;1.50;;;19.60;42.80;;;;;;10263425;28;20228;-72
2023/08/09 21:14:06;;;;;;;1.90;1.63;;;19.50;43.10;;;;;;10255283;28;20236;-72
2023/08/09 21:19:09;;;;;;;4.10;1.60;;;19.30;43.60;;;;;;10268063;28;20239;-72
2023/08/09 21:24:13;;;;;;;1.80;1.70;;;19.00;43.70;;;;;;10260885;28;20239;-72
2023/08/09 21:29:23;;;;;;;2.40;1.90;;;18.90;44.30;;;;;;10258859;28;20860;-72
2023/08/09 21:34:26;;;;;;;1.77;1.67;;;18.80;44.60;;;;;;10258560;28;20260;-72
2023/08/09 21:39:29;;;;;;;3.03;2.03;;;18.70;44.40;;;;;;10266216;28;20598;-72
2023/08/09 21:44:34;;;;;;;2.07;1.77;;;18.60;44.80;;;;;;10264937;28;20242;-72
2023/08/09 21:49:37;;;;;;;2.03;1.93;;;18.50;45.20;;;;;;10257758;28;20239;-72
2023/08/09 21:54:40;;;;;;;2.13;1.93;;;18.50;45.10;;;;;;10266058;28;20254;-72
2023/08/09 21:59:44;;;;;;;2.13;1.93;;;18.50;45.10;;;;;;10261065;28;20236;-72
2023/08/09 22:04:48;;;;;;;2.30;2.10;;;18.50;45.40;;;;;;10260641;28;20314;-72
2023/08/09 22:09:51;;;;;;;2.47;2.20;;;18.60;45.00;;;;;;10267279;28;20326;-72
2023/08/09 22:14:55;;;;;;;2.10;2.00;;;18.60;44.70;;;;;;10265406;28;20234;-72
2023/08/09 22:19:58;;;;;;;1.63;1.53;;;18.60;44.70;;;;;;10266950;28;20582;-72
2023/08/09 22:25:02;;;;;;;1.80;1.70;;;18.60;44.50;;;;;;10268556;28;20258;-72
2023/08/09 22:30:08;;;;;;;2.03;1.83;;;18.60;44.50;;;;;;10273718;28;20250;-72
2023/08/09 22:35:11;;;;;;;2.63;1.60;;;18.60;44.60;;;;;;10273006;28;20236;-72
2023/08/09 22:40:14;;;;;;;1.90;1.73;;;18.70;44.30;;;;;;10273240;28;20235;-72
2023/08/09 22:45:19;;;;;;;2.27;1.70;;;18.70;44.90;;;;;;10272531;28;20335;-72
2023/08/09 22:50:23;;;;;;;2.47;1.70;;;18.60;43.80;;;;;;10269859;28;20641;-72
2023/08/09 22:55:26;;;;;;;1.63;1.53;;;18.60;43.80;;;;;;10261726;28;20298;-72
2023/08/09 23:00:31;;;;;;;2.70;2.07;;;18.50;43.80;;;;;;10275304;28;20263;-72
2023/08/09 23:05:35;;;;;;;2.17;1.70;;;18.50;43.40;;;;;;10267878;28;20774;-72
2023/08/09 23:10:38;;;;;;;1.70;1.60;;;18.40;43.40;;;;;;10261687;28;20236;-72
2023/08/09 23:15:44;;;;;;;1.70;1.60;;;18.40;43.40;;;;;;10267966;28;20256;-72
2023/08/09 23:20:48;;;;;;;1.77;1.63;;;18.30;43.40;;;;;;10265736;28;20243;-72
2023/08/09 23:25:51;;;;;;;1.77;1.67;;;18.30;43.50;;;;;;10271805;28;20255;-72
2023/08/09 23:30:57;;;;;;;1.53;1.43;;;18.30;43.50;;;;;;10266413;28;20248;-72
2023/08/09 23:36:01;;;;;;;1.97;1.60;;;18.20;43.90;;;;;;10264544;28;20235;-72
2023/08/09 23:41:07;;;;;;;1.67;1.50;;;18.20;43.20;;;;;;10276239;28;21017;-72
2023/08/09 23:46:12;;;;;;;2.43;1.50;;;18.20;42.90;;;;;;10265927;28;20350;-72
2023/08/09 23:51:15;;;;;;;1.60;1.50;;;18.00;42.60;;;;;;10269327;28;20732;-72
2023/08/09 23:56:18;;;;;;;1.70;1.50;;;17.90;42.80;;;;;;10262202;28;20664;-73
